sensor_id;sensor_type;location;lat;lon;timestamp;P1;durP1;ratioP1;P2;durP2;ratioP2
61471;SDS011;47337;54.068;12.114;2023-11-25T00:00:49;2.55;;;0.60;;
61471;SDS011;47337;54.068;12.114;2023-11-25T00:03:14;2.17;;;0.75;;
61471;SDS011;47337;54.068;12.114;2023-11-25T00:05:40;3.08;;;0.60;;
61471;SDS011;47337;54.068;12.114;2023-11-25T00:08:05;2.15;;;0.50;;
61471;SDS011;47337;54.068;12.114;2023-11-25T00:10:33;2.45;;;1.02;;
61471;SDS011;47337;54.068;12.114;2023-11-25T00:13:01;4.53;;;0.95;;
61471;SDS011;47337;54.068;12.114;2023-11-25T00:15:27;4.57;;;0.60;;
61471;SDS011;47337;54.068;12.114;2023-11-25T00:17:52;1.33;;;0.60;;
61471;SDS011;47337;54.068;12.114;2023-11-25T00:20:18;4.25;;;0.73;;
61471;SDS011;47337;54.068;12.114;2023-11-25T00:22:45;5.28;;;1.00;;
61471;SDS011;47337;54.068;12.114;2023-11-25T00:25:13;3.30;;;0.50;;
61471;SDS011;47337;54.068;12.114;2023-11-25T00:27:39;2.55;;;1.17;;
61471;SDS011;47337;54.068;12.114;2023-11-25T00:30:04;3.65;;;0.75;;
61471;SDS011;47337;54.068;12.114;2023-11-25T00:32:30;2.58;;;1.08;;
61471;SDS011;47337;54.068;12.114;2023-11-25T00:35:02;3.72;;;0.43;;
61471;SDS011;47337;54.068;12.114;2023-11-25T00:37:27;6.72;;;1.00;;
61471;SDS011;47337;54.068;12.114;2023-11-25T00:39:52;3.88;;;0.80;;
61471;SDS011;47337;54.068;12.114;2023-11-25T00:42:17;6.35;;;0.90;;
61471;SDS011;47337;54.068;12.114;2023-11-25T00:44:46;2.67;;;0.73;;
61471;SDS011;47337;54.068;12.114;2023-11-25T00:47:14;4.70;;;0.68;;
61471;SDS011;47337;54.068;12.114;2023-11-25T00:49:39;1.98;;;0.57;;
61471;SDS011;47337;54.068;12.114;2023-11-25T00:52:06;4.68;;;0.95;;
61471;SDS011;47337;54.068;12.114;2023-11-25T00:54:34;5.18;;;0.82;;
61471;SDS011;47337;54.068;12.114;2023-11-25T00:56:59;3.10;;;0.75;;
61471;SDS011;47337;54.068;12.114;2023-11-25T00:59:26;3.10;;;0.80;;
61471;SDS011;47337;54.068;12.114;2023-11-25T01:01:51;2.97;;;0.73;;
61471;SDS011;47337;54.068;12.114;2023-11-25T01:04:17;4.40;;;1.13;;
61471;SDS011;47337;54.068;12.114;2023-11-25T01:06:46;9.02;;;1.15;;
61471;SDS011;47337;54.068;12.114;2023-11-25T01:09:12;4.28;;;0.80;;
61471;SDS011;47337;54.068;12.114;2023-11-25T01:11:38;6.03;;;1.02;;
61471;SDS011;47337;54.068;12.114;2023-11-25T01:14:04;5.93;;;1.55;;
61471;SDS011;47337;54.068;12.114;2023-11-25T01:16:30;7.05;;;1.00;;
61471;SDS011;47337;54.068;12.114;2023-11-25T01:18:55;4.80;;;0.82;;
61471;SDS011;47337;54.068;12.114;2023-11-25T01:21:21;6.53;;;0.88;;
61471;SDS011;47337;54.068;12.114;2023-11-25T01:23:46;9.55;;;0.80;;
61471;SDS011;47337;54.068;12.114;2023-11-25T01:26:12;6.53;;;0.75;;
61471;SDS011;47337;54.068;12.114;2023-11-25T01:28:37;5.00;;;0.82;;
61471;SDS011;47337;54.068;12.114;2023-11-25T01:31:02;7.18;;;1.17;;
61471;SDS011;47337;54.068;12.114;2023-11-25T01:33:28;3.60;;;0.93;;
61471;SDS011;47337;54.068;12.114;2023-11-25T01:35:53;6.57;;;1.48;;
61471;SDS011;47337;54.068;12.114;2023-11-25T01:38:18;7.10;;;2.22;;
61471;SDS011;47337;54.068;12.114;2023-11-25T01:40:43;6.28;;;0.95;;
61471;SDS011;47337;54.068;12.114;2023-11-25T01:43:12;6.50;;;0.93;;
61471;SDS011;47337;54.068;12.114;2023-11-25T01:45:39;9.32;;;1.20;;
61471;SDS011;47337;54.068;12.114;2023-11-25T01:48:07;4.90;;;1.40;;
61471;SDS011;47337;54.068;12.114;2023-11-25T01:50:35;5.53;;;1.00;;
61471;SDS011;47337;54.068;12.114;2023-11-25T01:53:03;5.68;;;1.10;;
61471;SDS011;47337;54.068;12.114;2023-11-25T01:55:29;4.50;;;0.73;;
61471;SDS011;47337;54.068;12.114;2023-11-25T01:57:57;3.13;;;0.93;;
61471;SDS011;47337;54.068;12.114;2023-11-25T02:00:24;3.65;;;0.95;;
61471;SDS011;47337;54.068;12.114;2023-11-25T02:02:49;5.35;;;1.02;;
61471;SDS011;47337;54.068;12.114;2023-11-25T02:05:17;7.00;;;0.93;;
61471;SDS011;47337;54.068;12.114;2023-11-25T02:07:42;3.90;;;0.63;;
61471;SDS011;47337;54.068;12.114;2023-11-25T02:10:08;4.20;;;1.08;;
61471;SDS011;47337;54.068;12.114;2023-11-25T02:12:35;6.20;;;0.77;;
61471;SDS011;47337;54.068;12.114;2023-11-25T02:15:03;7.60;;;0.93;;
61471;SDS011;47337;54.068;12.114;2023-11-25T02:17:31;9.15;;;2.47;;
61471;SDS011;47337;54.068;12.114;2023-11-25T02:19:56;3.35;;;2.15;;
61471;SDS011;47337;54.068;12.114;2023-11-25T02:22:25;4.05;;;0.80;;
61471;SDS011;47337;54.068;12.114;2023-11-25T02:24:53;1.70;;;1.00;;
61471;SDS011;47337;54.068;12.114;2023-11-25T02:27:18;5.35;;;0.95;;
61471;SDS011;47337;54.068;12.114;2023-11-25T02:29:43;7.47;;;0.80;;
61471;SDS011;47337;54.068;12.114;2023-11-25T02:32:09;2.60;;;0.60;;
61471;SDS011;47337;54.068;12.114;2023-11-25T02:34:34;3.88;;;0.60;;
61471;SDS011;47337;54.068;12.114;2023-11-25T02:36:59;8.50;;;0.90;;
61471;SDS011;47337;54.068;12.114;2023-11-25T02:39:25;2.30;;;0.73;;
61471;SDS011;47337;54.068;12.114;2023-11-25T02:41:53;5.97;;;0.80;;
61471;SDS011;47337;54.068;12.114;2023-11-25T02:44:19;3.60;;;0.60;;
61471;SDS011;47337;54.068;12.114;2023-11-25T02:46:48;2.88;;;0.70;;
61471;SDS011;47337;54.068;12.114;2023-11-25T02:49:13;6.22;;;1.50;;
61471;SDS011;47337;54.068;12.114;2023-11-25T02:51:45;4.72;;;0.70;;
61471;SDS011;47337;54.068;12.114;2023-11-25T02:54:11;2.97;;;1.00;;
61471;SDS011;47337;54.068;12.114;2023-11-25T02:56:36;4.70;;;1.08;;
61471;SDS011;47337;54.068;12.114;2023-11-25T02:59:01;3.20;;;0.90;;
61471;SDS011;47337;54.068;12.114;2023-11-25T03:01:26;3.88;;;1.10;;
61471;SDS011;47337;54.068;12.114;2023-11-25T03:03:55;2.13;;;0.82;;
61471;SDS011;47337;54.068;12.114;2023-11-25T03:06:24;7.35;;;1.05;;
61471;SDS011;47337;54.068;12.114;2023-11-25T03:08:49;4.43;;;0.85;;
61471;SDS011;47337;54.068;12.114;2023-11-25T03:11:18;6.60;;;1.25;;
61471;SDS011;47337;54.068;12.114;2023-11-25T03:13:46;4.18;;;0.73;;
61471;SDS011;47337;54.068;12.114;2023-11-25T03:16:11;8.05;;;1.70;;
61471;SDS011;47337;54.068;12.114;2023-11-25T03:18:36;3.60;;;0.88;;
61471;SDS011;47337;54.068;12.114;2023-11-25T03:21:02;3.47;;;0.50;;
61471;SDS011;47337;54.068;12.114;2023-11-25T03:23:28;7.20;;;0.60;;
61471;SDS011;47337;54.068;12.114;2023-11-25T03:25:56;3.72;;;0.70;;
61471;SDS011;47337;54.068;12.114;2023-11-25T03:28:21;7.68;;;0.85;;
61471;SDS011;47337;54.068;12.114;2023-11-25T03:30:47;5.18;;;0.63;;
61471;SDS011;47337;54.068;12.114;2023-11-25T03:33:12;2.85;;;0.70;;
61471;SDS011;47337;54.068;12.114;2023-11-25T03:35:38;3.55;;;0.90;;
61471;SDS011;47337;54.068;12.114;2023-11-25T03:38:06;7.30;;;0.98;;
61471;SDS011;47337;54.068;12.114;2023-11-25T03:40:32;3.63;;;0.80;;
61471;SDS011;47337;54.068;12.114;2023-11-25T03:42:57;1.48;;;0.50;;
61471;SDS011;47337;54.068;12.114;2023-11-25T03:45:23;4.85;;;1.05;;
61471;SDS011;47337;54.068;12.114;2023-11-25T03:47:48;5.20;;;0.98;;
61471;SDS011;47337;54.068;12.114;2023-11-25T03:50:16;3.58;;;0.73;;
61471;SDS011;47337;54.068;12.114;2023-11-25T03:52:41;6.28;;;0.70;;
61471;SDS011;47337;54.068;12.114;2023-11-25T03:55:07;3.13;;;0.90;;
61471;SDS011;47337;54.068;12.114;2023-11-25T03:57:32;5.65;;;0.80;;
61471;SDS011;47337;54.068;12.114;2023-11-25T03:59:58;10.85;;;1.08;;
61471;SDS011;47337;54.068;12.114;2023-11-25T04:02:23;4.40;;;0.85;;
61471;SDS011;47337;54.068;12.114;2023-11-25T04:04:48;4.05;;;0.75;;
61471;SDS011;47337;54.068;12.114;2023-11-25T04:07:13;3.50;;;0.85;;
61471;SDS011;47337;54.068;12.114;2023-11-25T04:09:39;6.38;;;1.05;;
61471;SDS011;47337;54.068;12.114;2023-11-25T04:12:04;9.93;;;0.80;;
61471;SDS011;47337;54.068;12.114;2023-11-25T04:14:29;5.82;;;1.30;;
61471;SDS011;47337;54.068;12.114;2023-11-25T04:16:55;6.05;;;1.15;;
61471;SDS011;47337;54.068;12.114;2023-11-25T04:19:21;2.50;;;0.80;;
61471;SDS011;47337;54.068;12.114;2023-11-25T04:21:46;5.78;;;0.82;;
61471;SDS011;47337;54.068;12.114;2023-11-25T04:24:12;12.80;;;1.23;;
61471;SDS011;47337;54.068;12.114;2023-11-25T04:26:40;4.00;;;0.80;;
61471;SDS011;47337;54.068;12.114;2023-11-25T04:29:08;6.50;;;1.00;;
61471;SDS011;47337;54.068;12.114;2023-11-25T04:31:34;5.68;;;0.90;;
61471;SDS011;47337;54.068;12.114;2023-11-25T04:33:59;3.88;;;0.75;;
61471;SDS011;47337;54.068;12.114;2023-11-25T04:36:25;2.47;;;0.65;;
61471;SDS011;47337;54.068;12.114;2023-11-25T04:38:50;4.18;;;0.82;;
61471;SDS011;47337;54.068;12.114;2023-11-25T04:41:18;7.20;;;0.93;;
61471;SDS011;47337;54.068;12.114;2023-11-25T04:43:43;2.83;;;0.65;;
61471;SDS011;47337;54.068;12.114;2023-11-25T04:46:09;2.72;;;0.75;;
61471;SDS011;47337;54.068;12.114;2023-11-25T04:48:34;4.30;;;0.68;;
61471;SDS011;47337;54.068;12.114;2023-11-25T04:51:00;9.57;;;0.82;;
61471;SDS011;47337;54.068;12.114;2023-11-25T04:53:25;2.55;;;0.57;;
61471;SDS011;47337;54.068;12.114;2023-11-25T04:55:51;2.67;;;1.00;;
61471;SDS011;47337;54.068;12.114;2023-11-25T04:58:17;3.75;;;1.08;;
61471;SDS011;47337;54.068;12.114;2023-11-25T05:00:43;6.25;;;0.55;;
61471;SDS011;47337;54.068;12.114;2023-11-25T05:03:08;1.75;;;0.77;;
61471;SDS011;47337;54.068;12.114;2023-11-25T05:05:34;2.33;;;0.85;;
61471;SDS011;47337;54.068;12.114;2023-11-25T05:07:59;1.60;;;0.70;;
61471;SDS011;47337;54.068;12.114;2023-11-25T05:10:25;4.78;;;0.90;;
61471;SDS011;47337;54.068;12.114;2023-11-25T05:12:53;3.88;;;0.60;;
61471;SDS011;47337;54.068;12.114;2023-11-25T05:15:21;2.42;;;0.82;;
61471;SDS011;47337;54.068;12.114;2023-11-25T05:17:50;6.70;;;1.02;;
61471;SDS011;47337;54.068;12.114;2023-11-25T05:20:15;3.60;;;0.85;;
61471;SDS011;47337;54.068;12.114;2023-11-25T05:22:44;4.38;;;0.60;;
61471;SDS011;47337;54.068;12.114;2023-11-25T05:25:09;6.68;;;0.85;;
61471;SDS011;47337;54.068;12.114;2023-11-25T05:27:43;1.75;;;0.60;;
61471;SDS011;47337;54.068;12.114;2023-11-25T05:30:09;3.80;;;0.88;;
61471;SDS011;47337;54.068;12.114;2023-11-25T05:32:39;3.08;;;0.60;;
61471;SDS011;47337;54.068;12.114;2023-11-25T05:35:04;8.98;;;0.90;;
61471;SDS011;47337;54.068;12.114;2023-11-25T05:37:31;3.13;;;0.82;;
61471;SDS011;47337;54.068;12.114;2023-11-25T05:39:56;3.08;;;1.05;;
61471;SDS011;47337;54.068;12.114;2023-11-25T05:42:22;1.30;;;0.50;;
61471;SDS011;47337;54.068;12.114;2023-11-25T05:44:54;4.45;;;0.90;;
61471;SDS011;47337;54.068;12.114;2023-11-25T05:47:21;2.85;;;0.73;;
61471;SDS011;47337;54.068;12.114;2023-11-25T05:49:46;7.50;;;0.70;;
61471;SDS011;47337;54.068;12.114;2023-11-25T05:52:14;5.20;;;0.60;;
61471;SDS011;47337;54.068;12.114;2023-11-25T05:54:42;3.95;;;1.08;;
61471;SDS011;47337;54.068;12.114;2023-11-25T05:57:08;4.47;;;0.88;;
61471;SDS011;47337;54.068;12.114;2023-11-25T05:59:33;3.00;;;0.90;;
61471;SDS011;47337;54.068;12.114;2023-11-25T06:01:58;3.95;;;0.70;;
61471;SDS011;47337;54.068;12.114;2023-11-25T06:04:24;6.43;;;0.80;;
61471;SDS011;47337;54.068;12.114;2023-11-25T06:06:49;7.43;;;1.02;;
61471;SDS011;47337;54.068;12.114;2023-11-25T06:09:15;3.13;;;0.52;;
61471;SDS011;47337;54.068;12.114;2023-11-25T06:11:42;5.78;;;0.90;;
61471;SDS011;47337;54.068;12.114;2023-11-25T06:14:08;2.30;;;0.73;;
61471;SDS011;47337;54.068;12.114;2023-11-25T06:16:37;7.20;;;0.90;;
61471;SDS011;47337;54.068;12.114;2023-11-25T06:19:06;4.28;;;0.70;;
61471;SDS011;47337;54.068;12.114;2023-11-25T06:21:31;4.40;;;0.70;;
61471;SDS011;47337;54.068;12.114;2023-11-25T06:23:57;6.40;;;0.98;;
61471;SDS011;47337;54.068;12.114;2023-11-25T06:26:22;5.22;;;1.95;;
61471;SDS011;47337;54.068;12.114;2023-11-25T06:28:47;1.88;;;0.52;;
61471;SDS011;47337;54.068;12.114;2023-11-25T06:31:13;3.55;;;0.80;;
61471;SDS011;47337;54.068;12.114;2023-11-25T06:33:39;8.68;;;1.20;;
61471;SDS011;47337;54.068;12.114;2023-11-25T06:36:05;4.78;;;0.82;;
61471;SDS011;47337;54.068;12.114;2023-11-25T06:38:30;4.85;;;0.70;;
61471;SDS011;47337;54.068;12.114;2023-11-25T06:40:56;2.85;;;0.70;;
61471;SDS011;47337;54.068;12.114;2023-11-25T06:43:21;2.95;;;1.30;;
61471;SDS011;47337;54.068;12.114;2023-11-25T06:45:46;2.70;;;0.85;;
61471;SDS011;47337;54.068;12.114;2023-11-25T06:48:16;4.47;;;1.48;;
61471;SDS011;47337;54.068;12.114;2023-11-25T06:50:41;3.85;;;0.90;;
61471;SDS011;47337;54.068;12.114;2023-11-25T06:53:07;6.30;;;1.20;;
61471;SDS011;47337;54.068;12.114;2023-11-25T06:55:32;5.07;;;1.70;;
61471;SDS011;47337;54.068;12.114;2023-11-25T06:57:58;5.28;;;0.82;;
61471;SDS011;47337;54.068;12.114;2023-11-25T07:00:23;3.90;;;0.82;;
61471;SDS011;47337;54.068;12.114;2023-11-25T07:02:48;4.82;;;1.50;;
61471;SDS011;47337;54.068;12.114;2023-11-25T07:05:14;9.43;;;1.50;;
61471;SDS011;47337;54.068;12.114;2023-11-25T07:07:41;4.97;;;1.33;;
61471;SDS011;47337;54.068;12.114;2023-11-25T07:10:06;2.28;;;0.68;;
61471;SDS011;47337;54.068;12.114;2023-11-25T07:12:35;5.05;;;1.13;;
61471;SDS011;47337;54.068;12.114;2023-11-25T07:15:02;6.90;;;1.15;;
61471;SDS011;47337;54.068;12.114;2023-11-25T07:17:27;3.13;;;0.93;;
61471;SDS011;47337;54.068;12.114;2023-11-25T07:19:52;8.68;;;1.10;;
61471;SDS011;47337;54.068;12.114;2023-11-25T07:22:18;7.10;;;0.98;;
61471;SDS011;47337;54.068;12.114;2023-11-25T07:24:45;2.65;;;1.10;;
61471;SDS011;47337;54.068;12.114;2023-11-25T07:27:11;7.72;;;1.45;;
61471;SDS011;47337;54.068;12.114;2023-11-25T07:29:41;10.65;;;1.75;;
61471;SDS011;47337;54.068;12.114;2023-11-25T07:32:06;4.03;;;1.23;;
61471;SDS011;47337;54.068;12.114;2023-11-25T07:34:34;3.15;;;1.15;;
61471;SDS011;47337;54.068;12.114;2023-11-25T07:37:01;3.95;;;0.90;;
61471;SDS011;47337;54.068;12.114;2023-11-25T07:39:26;7.43;;;1.17;;
61471;SDS011;47337;54.068;12.114;2023-11-25T07:41:54;6.55;;;0.80;;
61471;SDS011;47337;54.068;12.114;2023-11-25T07:44:23;3.88;;;1.40;;
61471;SDS011;47337;54.068;12.114;2023-11-25T07:46:49;3.75;;;1.05;;
61471;SDS011;47337;54.068;12.114;2023-11-25T07:49:15;6.47;;;1.13;;
61471;SDS011;47337;54.068;12.114;2023-11-25T07:51:43;5.78;;;1.30;;
61471;SDS011;47337;54.068;12.114;2023-11-25T07:54:09;5.82;;;1.30;;
61471;SDS011;47337;54.068;12.114;2023-11-25T07:56:36;6.38;;;1.38;;
61471;SDS011;47337;54.068;12.114;2023-11-25T07:59:01;4.22;;;1.75;;
61471;SDS011;47337;54.068;12.114;2023-11-25T08:01:26;4.63;;;2.15;;
61471;SDS011;47337;54.068;12.114;2023-11-25T08:03:51;6.15;;;2.47;;
61471;SDS011;47337;54.068;12.114;2023-11-25T08:06:17;7.35;;;2.42;;
61471;SDS011;47337;54.068;12.114;2023-11-25T08:08:42;9.27;;;2.33;;
61471;SDS011;47337;54.068;12.114;2023-11-25T08:11:09;4.80;;;2.22;;
61471;SDS011;47337;54.068;12.114;2023-11-25T08:13:34;7.57;;;2.00;;
61471;SDS011;47337;54.068;12.114;2023-11-25T08:16:00;5.57;;;1.90;;
61471;SDS011;47337;54.068;12.114;2023-11-25T08:18:27;4.68;;;1.33;;
61471;SDS011;47337;54.068;12.114;2023-11-25T08:20:52;2.72;;;1.20;;
61471;SDS011;47337;54.068;12.114;2023-11-25T08:23:18;6.70;;;1.73;;
61471;SDS011;47337;54.068;12.114;2023-11-25T08:25:44;5.65;;;1.52;;
61471;SDS011;47337;54.068;12.114;2023-11-25T08:28:10;4.22;;;1.05;;
61471;SDS011;47337;54.068;12.114;2023-11-25T08:30:35;3.72;;;0.90;;
61471;SDS011;47337;54.068;12.114;2023-11-25T08:33:01;2.22;;;0.90;;
61471;SDS011;47337;54.068;12.114;2023-11-25T08:35:26;3.78;;;1.30;;
61471;SDS011;47337;54.068;12.114;2023-11-25T08:37:54;3.42;;;1.00;;
61471;SDS011;47337;54.068;12.114;2023-11-25T08:40:19;2.78;;;1.40;;
61471;SDS011;47337;54.068;12.114;2023-11-25T08:42:46;6.32;;;1.35;;
61471;SDS011;47337;54.068;12.114;2023-11-25T08:45:12;3.53;;;1.55;;
61471;SDS011;47337;54.068;12.114;2023-11-25T08:47:37;7.53;;;1.38;;
61471;SDS011;47337;54.068;12.114;2023-11-25T08:50:06;3.92;;;1.33;;
61471;SDS011;47337;54.068;12.114;2023-11-25T08:52:34;4.75;;;1.23;;
61471;SDS011;47337;54.068;12.114;2023-11-25T08:55:07;4.65;;;1.00;;
61471;SDS011;47337;54.068;12.114;2023-11-25T08:57:35;4.10;;;0.93;;
61471;SDS011;47337;54.068;12.114;2023-11-25T09:00:04;3.20;;;1.00;;
61471;SDS011;47337;54.068;12.114;2023-11-25T09:02:40;4.47;;;0.70;;
61471;SDS011;47337;54.068;12.114;2023-11-25T09:05:05;2.65;;;1.13;;
61471;SDS011;47337;54.068;12.114;2023-11-25T09:07:31;2.03;;;0.93;;
61471;SDS011;47337;54.068;12.114;2023-11-25T09:09:56;4.35;;;1.40;;
61471;SDS011;47337;54.068;12.114;2023-11-25T09:12:21;5.43;;;1.25;;
61471;SDS011;47337;54.068;12.114;2023-11-25T09:14:46;2.47;;;0.90;;
61471;SDS011;47337;54.068;12.114;2023-11-25T09:17:14;4.85;;;1.10;;
61471;SDS011;47337;54.068;12.114;2023-11-25T09:19:41;4.00;;;1.10;;
61471;SDS011;47337;54.068;12.114;2023-11-25T09:22:09;3.97;;;1.08;;
61471;SDS011;47337;54.068;12.114;2023-11-25T09:24:37;5.03;;;1.15;;
61471;SDS011;47337;54.068;12.114;2023-11-25T09:27:02;4.57;;;1.10;;
61471;SDS011;47337;54.068;12.114;2023-11-25T09:29:27;2.42;;;1.52;;
61471;SDS011;47337;54.068;12.114;2023-11-25T09:31:52;4.68;;;1.60;;
61471;SDS011;47337;54.068;12.114;2023-11-25T09:34:18;4.53;;;1.27;;
61471;SDS011;47337;54.068;12.114;2023-11-25T09:36:43;7.55;;;2.42;;
61471;SDS011;47337;54.068;12.114;2023-11-25T09:39:10;2.30;;;1.10;;
61471;SDS011;47337;54.068;12.114;2023-11-25T09:41:36;3.42;;;1.48;;
61471;SDS011;47337;54.068;12.114;2023-11-25T09:44:02;3.17;;;1.40;;
61471;SDS011;47337;54.068;12.114;2023-11-25T09:46:31;3.60;;;1.60;;
61471;SDS011;47337;54.068;12.114;2023-11-25T09:48:56;3.47;;;1.40;;
61471;SDS011;47337;54.068;12.114;2023-11-25T09:51:22;5.60;;;1.95;;
61471;SDS011;47337;54.068;12.114;2023-11-25T09:53:49;3.33;;;1.23;;
61471;SDS011;47337;54.068;12.114;2023-11-25T09:56:16;6.45;;;1.50;;
61471;SDS011;47337;54.068;12.114;2023-11-25T09:58:42;5.45;;;1.50;;
61471;SDS011;47337;54.068;12.114;2023-11-25T10:01:07;5.00;;;1.77;;
61471;SDS011;47337;54.068;12.114;2023-11-25T10:03:37;3.58;;;1.75;;
61471;SDS011;47337;54.068;12.114;2023-11-25T10:06:07;2.83;;;1.60;;
61471;SDS011;47337;54.068;12.114;2023-11-25T10:08:33;4.53;;;1.80;;
61471;SDS011;47337;54.068;12.114;2023-11-25T10:13:29;5.93;;;1.75;;
61471;SDS011;47337;54.068;12.114;2023-11-25T10:15:55;3.53;;;1.92;;
61471;SDS011;47337;54.068;12.114;2023-11-25T10:18:20;5.13;;;2.03;;
61471;SDS011;47337;54.068;12.114;2023-11-25T10:20:45;4.60;;;1.98;;
61471;SDS011;47337;54.068;12.114;2023-11-25T10:23:16;5.20;;;1.70;;
61471;SDS011;47337;54.068;12.114;2023-11-25T10:25:45;4.57;;;2.07;;
61471;SDS011;47337;54.068;12.114;2023-11-25T10:28:10;4.57;;;2.40;;
61471;SDS011;47337;54.068;12.114;2023-11-25T10:30:39;2.78;;;1.73;;
61471;SDS011;47337;54.068;12.114;2023-11-25T10:33:06;4.93;;;1.90;;
61471;SDS011;47337;54.068;12.114;2023-11-25T10:35:33;5.75;;;1.98;;
61471;SDS011;47337;54.068;12.114;2023-11-25T10:37:59;7.03;;;2.00;;
61471;SDS011;47337;54.068;12.114;2023-11-25T10:40:24;4.22;;;1.63;;
61471;SDS011;47337;54.068;12.114;2023-11-25T10:42:52;3.58;;;1.58;;
61471;SDS011;47337;54.068;12.114;2023-11-25T10:45:18;7.97;;;1.95;;
61471;SDS011;47337;54.068;12.114;2023-11-25T10:47:47;4.30;;;1.42;;
61471;SDS011;47337;54.068;12.114;2023-11-25T10:50:12;3.88;;;1.90;;
61471;SDS011;47337;54.068;12.114;2023-11-25T10:52:43;5.50;;;1.98;;
61471;SDS011;47337;54.068;12.114;2023-11-25T10:55:09;5.35;;;1.77;;
61471;SDS011;47337;54.068;12.114;2023-11-25T10:57:35;4.97;;;2.25;;
61471;SDS011;47337;54.068;12.114;2023-11-25T11:00:00;11.75;;;2.80;;
61471;SDS011;47337;54.068;12.114;2023-11-25T11:02:30;12.68;;;2.38;;
61471;SDS011;47337;54.068;12.114;2023-11-25T11:05:04;6.23;;;2.10;;
61471;SDS011;47337;54.068;12.114;2023-11-25T11:07:33;5.68;;;2.50;;
61471;SDS011;47337;54.068;12.114;2023-11-25T11:10:01;6.85;;;2.38;;
61471;SDS011;47337;54.068;12.114;2023-11-25T11:12:37;5.78;;;2.13;;
61471;SDS011;47337;54.068;12.114;2023-11-25T11:15:04;8.02;;;3.15;;
61471;SDS011;47337;54.068;12.114;2023-11-25T11:20:02;6.68;;;2.80;;
61471;SDS011;47337;54.068;12.114;2023-11-25T11:22:32;7.63;;;2.73;;
61471;SDS011;47337;54.068;12.114;2023-11-25T11:25:07;3.75;;;2.10;;
61471;SDS011;47337;54.068;12.114;2023-11-25T11:30:24;8.52;;;2.10;;
61471;SDS011;47337;54.068;12.114;2023-11-25T11:32:54;4.80;;;1.50;;
61471;SDS011;47337;54.068;12.114;2023-11-25T11:35:20;5.15;;;1.20;;
61471;SDS011;47337;54.068;12.114;2023-11-25T11:37:57;2.22;;;0.70;;
61471;SDS011;47337;54.068;12.114;2023-11-25T11:40:23;2.58;;;0.60;;
61471;SDS011;47337;54.068;12.114;2023-11-25T11:42:50;3.50;;;0.68;;
61471;SDS011;47337;54.068;12.114;2023-11-25T11:45:19;1.52;;;0.40;;
61471;SDS011;47337;54.068;12.114;2023-11-25T11:47:57;2.47;;;0.45;;
61471;SDS011;47337;54.068;12.114;2023-11-25T11:50:32;1.55;;;0.35;;
61471;SDS011;47337;54.068;12.114;2023-11-25T11:55:43;0.47;;;0.30;;
61471;SDS011;47337;54.068;12.114;2023-11-25T11:58:14;3.42;;;0.43;;
61471;SDS011;47337;54.068;12.114;2023-11-25T12:00:40;3.70;;;0.57;;
61471;SDS011;47337;54.068;12.114;2023-11-25T12:03:06;1.85;;;0.40;;
61471;SDS011;47337;54.068;12.114;2023-11-25T12:05:31;0.57;;;0.30;;
61471;SDS011;47337;54.068;12.114;2023-11-25T12:07:57;1.55;;;0.20;;
61471;SDS011;47337;54.068;12.114;2023-11-25T12:10:22;1.30;;;0.20;;
61471;SDS011;47337;54.068;12.114;2023-11-25T12:12:48;2.30;;;0.40;;
61471;SDS011;47337;54.068;12.114;2023-11-25T12:15:13;3.85;;;0.60;;
61471;SDS011;47337;54.068;12.114;2023-11-25T12:17:40;0.95;;;0.38;;
61471;SDS011;47337;54.068;12.114;2023-11-25T12:20:09;0.93;;;0.40;;
61471;SDS011;47337;54.068;12.114;2023-11-25T12:22:36;0.70;;;0.40;;
61471;SDS011;47337;54.068;12.114;2023-11-25T12:25:02;2.97;;;0.47;;
61471;SDS011;47337;54.068;12.114;2023-11-25T12:27:28;3.72;;;0.75;;
61471;SDS011;47337;54.068;12.114;2023-11-25T12:29:57;1.88;;;0.60;;
61471;SDS011;47337;54.068;12.114;2023-11-25T12:32:22;2.92;;;0.50;;
61471;SDS011;47337;54.068;12.114;2023-11-25T12:34:48;1.95;;;0.60;;
61471;SDS011;47337;54.068;12.114;2023-11-25T12:37:14;4.10;;;0.90;;
61471;SDS011;47337;54.068;12.114;2023-11-25T12:39:39;2.03;;;0.90;;
61471;SDS011;47337;54.068;12.114;2023-11-25T12:42:04;6.68;;;1.10;;
61471;SDS011;47337;54.068;12.114;2023-11-25T12:44:48;1.08;;;0.80;;
61471;SDS011;47337;54.068;12.114;2023-11-25T12:47:14;1.48;;;0.50;;
61471;SDS011;47337;54.068;12.114;2023-11-25T12:49:40;3.13;;;0.50;;
61471;SDS011;47337;54.068;12.114;2023-11-25T12:52:06;2.85;;;0.65;;
61471;SDS011;47337;54.068;12.114;2023-11-25T12:54:42;1.48;;;0.55;;
61471;SDS011;47337;54.068;12.114;2023-11-25T12:57:11;2.25;;;0.60;;
61471;SDS011;47337;54.068;12.114;2023-11-25T12:59:37;1.52;;;0.52;;
61471;SDS011;47337;54.068;12.114;2023-11-25T13:02:07;4.22;;;0.50;;
61471;SDS011;47337;54.068;12.114;2023-11-25T13:04:33;2.08;;;0.50;;
61471;SDS011;47337;54.068;12.114;2023-11-25T13:06:58;3.15;;;0.68;;
61471;SDS011;47337;54.068;12.114;2023-11-25T13:09:27;1.85;;;0.50;;
61471;SDS011;47337;54.068;12.114;2023-11-25T13:11:56;3.85;;;0.68;;
61471;SDS011;47337;54.068;12.114;2023-11-25T13:14:22;1.88;;;0.70;;
61471;SDS011;47337;54.068;12.114;2023-11-25T13:16:47;2.25;;;0.50;;
61471;SDS011;47337;54.068;12.114;2023-11-25T13:19:12;1.30;;;0.40;;
61471;SDS011;47337;54.068;12.114;2023-11-25T13:21:38;3.33;;;0.70;;
61471;SDS011;47337;54.068;12.114;2023-11-25T13:24:05;2.53;;;0.57;;
61471;SDS011;47337;54.068;12.114;2023-11-25T13:26:31;4.00;;;0.60;;
61471;SDS011;47337;54.068;12.114;2023-11-25T13:28:57;0.98;;;0.40;;
61471;SDS011;47337;54.068;12.114;2023-11-25T13:31:23;2.53;;;0.55;;
61471;SDS011;47337;54.068;12.114;2023-11-25T13:33:48;1.83;;;0.52;;
61471;SDS011;47337;54.068;12.114;2023-11-25T13:36:14;4.22;;;0.80;;
61471;SDS011;47337;54.068;12.114;2023-11-25T13:38:39;1.52;;;0.80;;
61471;SDS011;47337;54.068;12.114;2023-11-25T13:41:04;2.33;;;0.60;;
61471;SDS011;47337;54.068;12.114;2023-11-25T13:43:30;2.78;;;0.98;;
61471;SDS011;47337;54.068;12.114;2023-11-25T13:45:55;1.45;;;0.52;;
61471;SDS011;47337;54.068;12.114;2023-11-25T13:48:23;2.15;;;0.60;;
61471;SDS011;47337;54.068;12.114;2023-11-25T13:50:49;5.07;;;1.13;;
61471;SDS011;47337;54.068;12.114;2023-11-25T13:53:15;1.63;;;0.50;;
61471;SDS011;47337;54.068;12.114;2023-11-25T13:55:43;2.80;;;0.60;;
61471;SDS011;47337;54.068;12.114;2023-11-25T13:58:12;1.23;;;0.30;;
61471;SDS011;47337;54.068;12.114;2023-11-25T14:00:38;1.17;;;0.40;;
61471;SDS011;47337;54.068;12.114;2023-11-25T14:03:03;1.70;;;0.60;;
61471;SDS011;47337;54.068;12.114;2023-11-25T14:05:35;1.33;;;0.30;;
61471;SDS011;47337;54.068;12.114;2023-11-25T14:08:07;1.17;;;0.20;;
61471;SDS011;47337;54.068;12.114;2023-11-25T14:10:35;1.88;;;0.40;;
61471;SDS011;47337;54.068;12.114;2023-11-25T14:13:02;1.20;;;0.40;;
61471;SDS011;47337;54.068;12.114;2023-11-25T14:15:28;0.68;;;0.47;;
61471;SDS011;47337;54.068;12.114;2023-11-25T14:18:01;2.50;;;0.73;;
61471;SDS011;47337;54.068;12.114;2023-11-25T14:20:27;2.70;;;0.45;;
61471;SDS011;47337;54.068;12.114;2023-11-25T14:22:53;1.73;;;0.60;;
61471;SDS011;47337;54.068;12.114;2023-11-25T14:25:18;1.65;;;0.50;;
61471;SDS011;47337;54.068;12.114;2023-11-25T14:27:47;1.77;;;0.30;;
61471;SDS011;47337;54.068;12.114;2023-11-25T14:30:13;3.15;;;0.60;;
61471;SDS011;47337;54.068;12.114;2023-11-25T14:32:42;0.80;;;0.43;;
61471;SDS011;47337;54.068;12.114;2023-11-25T14:35:12;0.85;;;0.35;;
61471;SDS011;47337;54.068;12.114;2023-11-25T14:37:37;0.70;;;0.32;;
61471;SDS011;47337;54.068;12.114;2023-11-25T14:40:04;1.25;;;0.50;;